sensor_id;sensor_type;location;lat;lon;timestamp;temperature;humidity
60848;DHT22;46681;47.696;9.140;2023-07-13T00:01:57;22.30;63.50
60848;DHT22;46681;47.696;9.140;2023-07-13T00:04:24;22.20;63.40
60848;DHT22;46681;47.696;9.140;2023-07-13T00:06:53;22.20;63.40
60848;DHT22;46681;47.696;9.140;2023-07-13T00:09:20;22.20;63.50
60848;DHT22;46681;47.696;9.140;2023-07-13T00:11:52;22.20;64.00
60848;DHT22;46681;47.696;9.140;2023-07-13T00:14:20;22.20;63.60
60848;DHT22;46681;47.696;9.140;2023-07-13T00:16:49;22.20;63.60
60848;DHT22;46681;47.696;9.140;2023-07-13T00:19:14;22.20;63.70
60848;DHT22;46681;47.696;9.140;2023-07-13T00:21:40;22.20;63.70
60848;DHT22;46681;47.696;9.140;2023-07-13T00:24:08;22.10;63.60
60848;DHT22;46681;47.696;9.140;2023-07-13T00:26:35;22.10;63.80
60848;DHT22;46681;47.696;9.140;2023-07-13T00:29:01;22.10;63.60
60848;DHT22;46681;47.696;9.140;2023-07-13T00:31:26;22.10;63.70
60848;DHT22;46681;47.696;9.140;2023-07-13T00:33:52;22.10;63.70
60848;DHT22;46681;47.696;9.140;2023-07-13T00:36:17;22.10;63.70
60848;DHT22;46681;47.696;9.140;2023-07-13T00:38:43;22.10;63.60
60848;DHT22;46681;47.696;9.140;2023-07-13T00:41:13;22.10;63.90
60848;DHT22;46681;47.696;9.140;2023-07-13T00:43:39;22.10;63.90
60848;DHT22;46681;47.696;9.140;2023-07-13T00:46:22;22.10;63.80
60848;DHT22;46681;47.696;9.140;2023-07-13T00:48:49;22.00;63.70
60848;DHT22;46681;47.696;9.140;2023-07-13T00:51:22;22.10;63.70
60848;DHT22;46681;47.696;9.140;2023-07-13T00:53:50;22.00;63.80
60848;DHT22;46681;47.696;9.140;2023-07-13T00:56:16;22.00;63.80
60848;DHT22;46681;47.696;9.140;2023-07-13T00:58:41;22.00;63.70
60848;DHT22;46681;47.696;9.140;2023-07-13T01:01:07;22.00;63.80
60848;DHT22;46681;47.696;9.140;2023-07-13T01:03:34;22.00;63.80
60848;DHT22;46681;47.696;9.140;2023-07-13T01:06:04;22.00;63.80
60848;DHT22;46681;47.696;9.140;2023-07-13T01:08:33;22.00;63.60
60848;DHT22;46681;47.696;9.140;2023-07-13T01:10:59;22.00;63.80
60848;DHT22;46681;47.696;9.140;2023-07-13T01:13:24;22.00;63.80
60848;DHT22;46681;47.696;9.140;2023-07-13T01:15:51;21.90;63.80
60848;DHT22;46681;47.696;9.140;2023-07-13T01:18:22;21.90;64.00
60848;DHT22;46681;47.696;9.140;2023-07-13T01:21:00;21.90;63.90
60848;DHT22;46681;47.696;9.140;2023-07-13T01:23:27;21.90;63.70
60848;DHT22;46681;47.696;9.140;2023-07-13T01:25:53;21.90;63.80
60848;DHT22;46681;47.696;9.140;2023-07-13T01:28:19;21.90;63.80
60848;DHT22;46681;47.696;9.140;2023-07-13T01:30:48;21.90;63.90
60848;DHT22;46681;47.696;9.140;2023-07-13T01:33:16;21.90;63.80
60848;DHT22;46681;47.696;9.140;2023-07-13T01:35:45;21.80;63.80
60848;DHT22;46681;47.696;9.140;2023-07-13T01:38:17;21.90;63.90
60848;DHT22;46681;47.696;9.140;2023-07-13T01:40:43;21.80;63.80
60848;DHT22;46681;47.696;9.140;2023-07-13T01:43:08;21.80;63.80
60848;DHT22;46681;47.696;9.140;2023-07-13T01:45:35;21.80;64.00
60848;DHT22;46681;47.696;9.140;2023-07-13T01:48:00;21.80;63.90
60848;DHT22;46681;47.696;9.140;2023-07-13T01:50:28;21.80;63.90
60848;DHT22;46681;47.696;9.140;2023-07-13T01:52:54;21.80;64.10
60848;DHT22;46681;47.696;9.140;2023-07-13T01:55:20;21.80;64.10
60848;DHT22;46681;47.696;9.140;2023-07-13T01:57:51;21.80;64.10
60848;DHT22;46681;47.696;9.140;2023-07-13T02:00:21;21.70;64.00
60848;DHT22;46681;47.696;9.140;2023-07-13T02:02:51;21.70;64.10
60848;DHT22;46681;47.696;9.140;2023-07-13T02:05:19;21.70;64.10
60848;DHT22;46681;47.696;9.140;2023-07-13T02:07:48;21.70;64.10
60848;DHT22;46681;47.696;9.140;2023-07-13T02:10:14;21.70;64.10
60848;DHT22;46681;47.696;9.140;2023-07-13T02:12:40;21.70;64.20
60848;DHT22;46681;47.696;9.140;2023-07-13T02:15:06;21.70;64.30
60848;DHT22;46681;47.696;9.140;2023-07-13T02:17:34;21.70;64.10
60848;DHT22;46681;47.696;9.140;2023-07-13T02:20:00;21.70;64.80
60848;DHT22;46681;47.696;9.140;2023-07-13T02:22:25;21.70;64.30
60848;DHT22;46681;47.696;9.140;2023-07-13T02:24:51;21.70;64.20
60848;DHT22;46681;47.696;9.140;2023-07-13T02:27:17;21.60;64.20
60848;DHT22;46681;47.696;9.140;2023-07-13T02:29:42;21.60;64.20
60848;DHT22;46681;47.696;9.140;2023-07-13T02:32:08;21.60;64.20
60848;DHT22;46681;47.696;9.140;2023-07-13T02:34:34;21.60;64.20
60848;DHT22;46681;47.696;9.140;2023-07-13T02:37:00;21.60;64.30
60848;DHT22;46681;47.696;9.140;2023-07-13T02:39:25;21.60;64.00
60848;DHT22;46681;47.696;9.140;2023-07-13T02:41:51;21.60;64.20
60848;DHT22;46681;47.696;9.140;2023-07-13T02:44:16;21.60;64.30
60848;DHT22;46681;47.696;9.140;2023-07-13T02:46:42;21.50;64.20
60848;DHT22;46681;47.696;9.140;2023-07-13T02:49:07;21.50;64.10
60848;DHT22;46681;47.696;9.140;2023-07-13T02:51:33;21.50;64.20
60848;DHT22;46681;47.696;9.140;2023-07-13T02:54:02;21.50;64.60
60848;DHT22;46681;47.696;9.140;2023-07-13T02:56:36;21.50;64.90
60848;DHT22;46681;47.696;9.140;2023-07-13T02:59:05;21.50;64.90
60848;DHT22;46681;47.696;9.140;2023-07-13T03:01:34;21.50;65.20
60848;DHT22;46681;47.696;9.140;2023-07-13T03:04:00;21.50;65.00
60848;DHT22;46681;47.696;9.140;2023-07-13T03:06:25;21.50;65.30
60848;DHT22;46681;47.696;9.140;2023-07-13T03:08:51;21.60;65.30
60848;DHT22;46681;47.696;9.140;2023-07-13T03:11:19;21.60;65.60
60848;DHT22;46681;47.696;9.140;2023-07-13T03:13:45;21.60;65.50
60848;DHT22;46681;47.696;9.140;2023-07-13T03:16:14;21.60;65.80
60848;DHT22;46681;47.696;9.140;2023-07-13T03:18:40;21.60;65.60
60848;DHT22;46681;47.696;9.140;2023-07-13T03:21:06;21.60;65.90
60848;DHT22;46681;47.696;9.140;2023-07-13T03:23:33;21.60;66.10
60848;DHT22;46681;47.696;9.140;2023-07-13T03:26:11;21.60;65.90
60848;DHT22;46681;47.696;9.140;2023-07-13T03:28:43;21.60;66.00
60848;DHT22;46681;47.696;9.140;2023-07-13T03:31:16;21.60;66.00
60848;DHT22;46681;47.696;9.140;2023-07-13T03:33:42;21.60;66.00
60848;DHT22;46681;47.696;9.140;2023-07-13T03:36:17;21.60;66.00
60848;DHT22;46681;47.696;9.140;2023-07-13T03:38:56;21.60;66.30
60848;DHT22;46681;47.696;9.140;2023-07-13T03:41:24;21.60;66.70
60848;DHT22;46681;47.696;9.140;2023-07-13T03:43:53;21.60;66.30
60848;DHT22;46681;47.696;9.140;2023-07-13T03:46:19;21.60;66.30
60848;DHT22;46681;47.696;9.140;2023-07-13T03:48:48;21.60;66.30
60848;DHT22;46681;47.696;9.140;2023-07-13T03:51:16;21.60;66.20
60848;DHT22;46681;47.696;9.140;2023-07-13T03:53:50;21.60;66.20
60848;DHT22;46681;47.696;9.140;2023-07-13T03:56:21;21.60;66.10
60848;DHT22;46681;47.696;9.140;2023-07-13T03:58:52;21.60;66.20
60848;DHT22;46681;47.696;9.140;2023-07-13T04:01:22;21.60;66.20
60848;DHT22;46681;47.696;9.140;2023-07-13T04:03:49;21.60;66.20
60848;DHT22;46681;47.696;9.140;2023-07-13T04:06:28;21.60;66.20
60848;DHT22;46681;47.696;9.140;2023-07-13T04:08:59;21.60;66.20
60848;DHT22;46681;47.696;9.140;2023-07-13T04:11:27;21.60;66.20
60848;DHT22;46681;47.696;9.140;2023-07-13T04:13:53;21.60;66.10
60848;DHT22;46681;47.696;9.140;2023-07-13T04:16:22;21.60;66.20
60848;DHT22;46681;47.696;9.140;2023-07-13T04:18:52;21.60;66.20
60848;DHT22;46681;47.696;9.140;2023-07-13T04:21:22;21.60;66.10
60848;DHT22;46681;47.696;9.140;2023-07-13T04:23:48;21.60;66.20
60848;DHT22;46681;47.696;9.140;2023-07-13T04:26:17;21.60;66.20
60848;DHT22;46681;47.696;9.140;2023-07-13T04:28:43;21.60;69.50
60848;DHT22;46681;47.696;9.140;2023-07-13T04:31:12;21.60;70.60
60848;DHT22;46681;47.696;9.140;2023-07-13T04:33:39;21.70;70.40
60848;DHT22;46681;47.696;9.140;2023-07-13T04:36:06;21.60;69.80
60848;DHT22;46681;47.696;9.140;2023-07-13T04:38:32;21.60;69.50
60848;DHT22;46681;47.696;9.140;2023-07-13T04:41:00;21.60;69.30
60848;DHT22;46681;47.696;9.140;2023-07-13T04:43:28;21.60;69.10
60848;DHT22;46681;47.696;9.140;2023-07-13T04:46:08;21.60;69.00
60848;DHT22;46681;47.696;9.140;2023-07-13T04:48:37;21.60;68.70
60848;DHT22;46681;47.696;9.140;2023-07-13T04:51:03;21.60;68.60
60848;DHT22;46681;47.696;9.140;2023-07-13T04:53:32;21.60;68.50
60848;DHT22;46681;47.696;9.140;2023-07-13T04:56:05;21.60;68.30
60848;DHT22;46681;47.696;9.140;2023-07-13T04:58:31;21.60;68.30
60848;DHT22;46681;47.696;9.140;2023-07-13T05:01:06;21.70;68.60
60848;DHT22;46681;47.696;9.140;2023-07-13T05:03:31;21.70;68.50
60848;DHT22;46681;47.696;9.140;2023-07-13T05:06:06;21.70;68.40
60848;DHT22;46681;47.696;9.140;2023-07-13T05:08:36;21.70;68.40
60848;DHT22;46681;47.696;9.140;2023-07-13T05:11:05;21.70;68.10
60848;DHT22;46681;47.696;9.140;2023-07-13T05:13:31;21.70;67.90
60848;DHT22;46681;47.696;9.140;2023-07-13T05:16:02;21.70;68.00
60848;DHT22;46681;47.696;9.140;2023-07-13T05:18:36;21.70;68.00
60848;DHT22;46681;47.696;9.140;2023-07-13T05:21:10;21.70;68.20
60848;DHT22;46681;47.696;9.140;2023-07-13T05:23:40;21.80;67.90
60848;DHT22;46681;47.696;9.140;2023-07-13T05:26:06;21.80;68.10
60848;DHT22;46681;47.696;9.140;2023-07-13T05:28:33;21.80;67.60
60848;DHT22;46681;47.696;9.140;2023-07-13T05:31:04;21.80;67.50
60848;DHT22;46681;47.696;9.140;2023-07-13T05:33:30;21.80;67.30
60848;DHT22;46681;47.696;9.140;2023-07-13T05:35:56;21.80;67.30
60848;DHT22;46681;47.696;9.140;2023-07-13T05:38:33;21.80;67.20
60848;DHT22;46681;47.696;9.140;2023-07-13T05:41:04;21.80;67.00
60848;DHT22;46681;47.696;9.140;2023-07-13T05:43:29;21.80;68.00
60848;DHT22;46681;47.696;9.140;2023-07-13T05:46:04;21.90;68.00
60848;DHT22;46681;47.696;9.140;2023-07-13T05:48:37;21.90;67.60
60848;DHT22;46681;47.696;9.140;2023-07-13T05:51:17;21.90;67.20
60848;DHT22;46681;47.696;9.140;2023-07-13T05:53:51;21.90;67.30
60848;DHT22;46681;47.696;9.140;2023-07-13T05:56:32;21.90;68.10
60848;DHT22;46681;47.696;9.140;2023-07-13T05:58:58;22.00;67.80
60848;DHT22;46681;47.696;9.140;2023-07-13T06:01:30;22.00;67.70
60848;DHT22;46681;47.696;9.140;2023-07-13T06:04:03;21.90;67.30
60848;DHT22;46681;47.696;9.140;2023-07-13T06:06:32;21.90;67.20
60848;DHT22;46681;47.696;9.140;2023-07-13T06:09:07;21.90;67.70
60848;DHT22;46681;47.696;9.140;2023-07-13T06:11:43;22.00;67.80
60848;DHT22;46681;47.696;9.140;2023-07-13T06:14:11;21.90;69.40
60848;DHT22;46681;47.696;9.140;2023-07-13T06:16:36;22.10;69.80
60848;DHT22;46681;47.696;9.140;2023-07-13T06:19:09;22.20;70.10
60848;DHT22;46681;47.696;9.140;2023-07-13T06:21:40;22.20;70.00
60848;DHT22;46681;47.696;9.140;2023-07-13T06:24:26;22.10;69.70
60848;DHT22;46681;47.696;9.140;2023-07-13T06:26:52;22.10;69.20
60848;DHT22;46681;47.696;9.140;2023-07-13T06:29:21;22.10;69.00
60848;DHT22;46681;47.696;9.140;2023-07-13T06:31:49;22.00;68.90
60848;DHT22;46681;47.696;9.140;2023-07-13T06:34:24;22.00;68.80
60848;DHT22;46681;47.696;9.140;2023-07-13T06:36:52;22.00;68.50
60848;DHT22;46681;47.696;9.140;2023-07-13T06:39:19;22.00;68.40
60848;DHT22;46681;47.696;9.140;2023-07-13T06:41:58;22.00;68.20
60848;DHT22;46681;47.696;9.140;2023-07-13T06:44:33;22.00;68.00
60848;DHT22;46681;47.696;9.140;2023-07-13T06:47:30;21.90;67.80
60848;DHT22;46681;47.696;9.140;2023-07-13T06:50:01;21.90;67.70
60848;DHT22;46681;47.696;9.140;2023-07-13T06:52:30;21.90;67.70
60848;DHT22;46681;47.696;9.140;2023-07-13T06:54:57;21.90;67.50
60848;DHT22;46681;47.696;9.140;2023-07-13T06:57:30;21.90;68.00
60848;DHT22;46681;47.696;9.140;2023-07-13T06:59:57;21.90;67.40
60848;DHT22;46681;47.696;9.140;2023-07-13T07:02:27;21.80;67.10
60848;DHT22;46681;47.696;9.140;2023-07-13T07:04:53;21.90;67.20
60848;DHT22;46681;47.696;9.140;2023-07-13T07:07:36;21.90;67.20
60848;DHT22;46681;47.696;9.140;2023-07-13T07:10:06;21.80;67.00
60848;DHT22;46681;47.696;9.140;2023-07-13T07:12:34;21.80;66.80
60848;DHT22;46681;47.696;9.140;2023-07-13T07:15:13;21.80;66.90
60848;DHT22;46681;47.696;9.140;2023-07-13T07:17:39;21.80;66.60
60848;DHT22;46681;47.696;9.140;2023-07-13T07:20:12;21.80;66.70
60848;DHT22;46681;47.696;9.140;2023-07-13T07:22:44;21.80;66.60
60848;DHT22;46681;47.696;9.140;2023-07-13T07:25:19;21.80;66.40
60848;DHT22;46681;47.696;9.140;2023-07-13T07:27:54;21.80;66.30
60848;DHT22;46681;47.696;9.140;2023-07-13T07:30:28;21.70;66.30
60848;DHT22;46681;47.696;9.140;2023-07-13T07:33:00;21.70;66.20
60848;DHT22;46681;47.696;9.140;2023-07-13T07:35:27;21.70;66.10
60848;DHT22;46681;47.696;9.140;2023-07-13T07:37:55;21.70;66.00
60848;DHT22;46681;47.696;9.140;2023-07-13T07:40:35;21.70;66.00
60848;DHT22;46681;47.696;9.140;2023-07-13T07:43:02;21.70;65.80
60848;DHT22;46681;47.696;9.140;2023-07-13T07:45:31;21.70;66.00
60848;DHT22;46681;47.696;9.140;2023-07-13T07:47:57;21.70;65.90
60848;DHT22;46681;47.696;9.140;2023-07-13T07:50:28;21.70;65.60
60848;DHT22;46681;47.696;9.140;2023-07-13T07:56:13;21.80;65.60
60848;DHT22;46681;47.696;9.140;2023-07-13T07:59:02;21.80;65.30
60848;DHT22;46681;47.696;9.140;2023-07-13T08:01:45;21.80;65.30
60848;DHT22;46681;47.696;9.140;2023-07-13T08:07:16;21.80;65.30
60848;DHT22;46681;47.696;9.140;2023-07-13T08:10:10;21.80;65.80
60848;DHT22;46681;47.696;9.140;2023-07-13T08:16:05;21.80;65.00
60848;DHT22;46681;47.696;9.140;2023-07-13T08:21:54;21.90;64.90
60848;DHT22;46681;47.696;9.140;2023-07-13T08:24:30;21.90;64.80
60848;DHT22;46681;47.696;9.140;2023-07-13T08:27:12;22.00;64.70
60848;DHT22;46681;47.696;9.140;2023-07-13T08:29:43;22.00;64.60
60848;DHT22;46681;47.696;9.140;2023-07-13T08:32:15;22.00;64.40
60848;DHT22;46681;47.696;9.140;2023-07-13T08:34:45;22.10;64.80
60848;DHT22;46681;47.696;9.140;2023-07-13T08:37:23;22.10;64.00
60848;DHT22;46681;47.696;9.140;2023-07-13T08:39:51;22.20;63.90
60848;DHT22;46681;47.696;9.140;2023-07-13T08:42:53;22.20;63.60
60848;DHT22;46681;47.696;9.140;2023-07-13T08:45:27;22.30;63.40
60848;DHT22;46681;47.696;9.140;2023-07-13T08:53:54;22.60;63.00
60848;DHT22;46681;47.696;9.140;2023-07-13T08:56:31;22.70;62.10
60848;DHT22;46681;47.696;9.140;2023-07-13T08:59:26;22.80;62.20
60848;DHT22;46681;47.696;9.140;2023-07-13T09:02:25;22.90;61.50
60848;DHT22;46681;47.696;9.140;2023-07-13T09:20:56;23.90;58.60
60848;DHT22;46681;47.696;9.140;2023-07-13T09:24:21;24.00;58.30
60848;DHT22;46681;47.696;9.140;2023-07-13T09:26:49;24.10;58.20
60848;DHT22;46681;47.696;9.140;2023-07-13T09:32:43;24.20;57.60
60848;DHT22;46681;47.696;9.140;2023-07-13T09:35:35;24.30;57.40
60848;DHT22;46681;47.696;9.140;2023-07-13T09:46:59;25.10;56.30
60848;DHT22;46681;47.696;9.140;2023-07-13T09:53:03;25.30;55.50
60848;DHT22;46681;47.696;9.140;2023-07-13T10:05:26;25.40;55.30
60848;DHT22;46681;47.696;9.140;2023-07-13T10:07:57;25.40;55.40
60848;DHT22;46681;47.696;9.140;2023-07-13T10:16:33;25.30;55.60
60848;DHT22;46681;47.696;9.140;2023-07-13T10:59:11;26.40;52.70
60848;DHT22;46681;47.696;9.140;2023-07-13T11:11:33;26.70;52.00
60848;DHT22;46681;47.696;9.140;2023-07-13T12:09:43;28.10;48.00
60848;DHT22;46681;47.696;9.140;2023-07-13T12:19:09;28.20;47.40
60848;DHT22;46681;47.696;9.140;2023-07-13T12:22:08;28.30;47.70
60848;DHT22;46681;47.696;9.140;2023-07-13T12:25:05;28.50;47.80
60848;DHT22;46681;47.696;9.140;2023-07-13T12:27:41;28.50;47.70
60848;DHT22;46681;47.696;9.140;2023-07-13T12:33:31;28.40;48.10
60848;DHT22;46681;47.696;9.140;2023-07-13T12:36:18;28.60;48.30
60848;DHT22;46681;47.696;9.140;2023-07-13T12:39:58;28.70;47.90
60848;DHT22;46681;47.696;9.140;2023-07-13T12:48:18;28.40;46.40
60848;DHT22;46681;47.696;9.140;2023-07-13T13:00:47;29.00;46.80
60848;DHT22;46681;47.696;9.140;2023-07-13T13:03:33;29.20;46.80
60848;DHT22;46681;47.696;9.140;2023-07-13T13:06:24;29.40;46.80
60848;DHT22;46681;47.696;9.140;2023-07-13T13:12:01;29.20;46.80
60848;DHT22;46681;47.696;9.140;2023-07-13T13:24:14;29.80;46.80
60848;DHT22;46681;47.696;9.140;2023-07-13T13:30:37;30.10;46.60
60848;DHT22;46681;47.696;9.140;2023-07-13T13:33:55;30.20;46.60
60848;DHT22;46681;47.696;9.140;2023-07-13T13:45:56;30.60;46.30
60848;DHT22;46681;47.696;9.140;2023-07-13T13:48:43;30.60;46.30
60848;DHT22;46681;47.696;9.140;2023-07-13T13:51:40;30.50;45.40
60848;DHT22;46681;47.696;9.140;2023-07-13T13:57:23;30.10;45.20
60848;DHT22;46681;47.696;9.140;2023-07-13T14:12:23;30.10;45.00
60848;DHT22;46681;47.696;9.140;2023-07-13T14:15:39;30.30;45.00
60848;DHT22;46681;47.696;9.140;2023-07-13T14:18:20;30.50;45.00
60848;DHT22;46681;47.696;9.140;2023-07-13T14:24:10;30.60;44.70
60848;DHT22;46681;47.696;9.140;2023-07-13T14:35:42;30.90;44.60
60848;DHT22;46681;47.696;9.140;2023-07-13T14:38:41;31.00;44.70
60848;DHT22;46681;47.696;9.140;2023-07-13T14:41:43;31.00;44.60
60848;DHT22;46681;47.696;9.140;2023-07-13T14:47:12;31.00;44.50
60848;DHT22;46681;47.696;9.140;2023-07-13T15:05:44;30.90;44.40
60848;DHT22;46681;47.696;9.140;2023-07-13T15:39:20;30.40;44.70
60848;DHT22;46681;47.696;9.140;2023-07-13T16:06:23;29.90;44.00
60848;DHT22;46681;47.696;9.140;2023-07-13T16:12:18;29.60;44.50
60848;DHT22;46681;47.696;9.140;2023-07-13T16:18:11;29.60;44.90
60848;DHT22;46681;47.696;9.140;2023-07-13T16:36:50;29.50;44.50
60848;DHT22;46681;47.696;9.140;2023-07-13T16:43:43;29.30;44.40
60848;DHT22;46681;47.696;9.140;2023-07-13T16:46:42;29.30;44.20
60848;DHT22;46681;47.696;9.140;2023-07-13T16:52:19;29.20;43.50
60848;DHT22;46681;47.696;9.140;2023-07-13T16:55:22;29.20;43.90
60848;DHT22;46681;47.696;9.140;2023-07-13T17:07:21;28.90;43.50
60848;DHT22;46681;47.696;9.140;2023-07-13T17:09:46;28.90;43.60
60848;DHT22;46681;47.696;9.140;2023-07-13T17:12:13;28.80;43.70
60848;DHT22;46681;47.696;9.140;2023-07-13T17:15:00;28.80;43.70
60848;DHT22;46681;47.696;9.140;2023-07-13T17:20:46;28.60;44.00
60848;DHT22;46681;47.696;9.140;2023-07-13T17:23:50;28.60;44.00
60848;DHT22;46681;47.696;9.140;2023-07-13T17:26:52;28.50;44.10
60848;DHT22;46681;47.696;9.140;2023-07-13T17:29:27;28.40;44.10
60848;DHT22;46681;47.696;9.140;2023-07-13T17:57:18;27.80;45.00
60848;DHT22;46681;47.696;9.140;2023-07-13T18:12:36;27.40;45.30
60848;DHT22;46681;47.696;9.140;2023-07-13T18:15:31;27.30;45.60
60848;DHT22;46681;47.696;9.140;2023-07-13T18:18:11;27.30;45.90
60848;DHT22;46681;47.696;9.140;2023-07-13T18:21:01;27.20;45.80
60848;DHT22;46681;47.696;9.140;2023-07-13T18:23:36;27.10;46.00
60848;DHT22;46681;47.696;9.140;2023-07-13T18:26:30;27.10;46.30
60848;DHT22;46681;47.696;9.140;2023-07-13T18:32:55;26.90;46.00
60848;DHT22;46681;47.696;9.140;2023-07-13T18:36:05;26.80;46.20
60848;DHT22;46681;47.696;9.140;2023-07-13T18:38:36;26.80;46.20
60848;DHT22;46681;47.696;9.140;2023-07-13T18:44:12;26.60;46.30
60848;DHT22;46681;47.696;9.140;2023-07-13T18:46:42;26.50;46.10
60848;DHT22;46681;47.696;9.140;2023-07-13T18:49:21;26.50;46.10
60848;DHT22;46681;47.696;9.140;2023-07-13T18:51:52;26.40;46.10
60848;DHT22;46681;47.696;9.140;2023-07-13T18:54:21;26.30;46.10
60848;DHT22;46681;47.696;9.140;2023-07-13T18:56:59;26.30;46.30
60848;DHT22;46681;47.696;9.140;2023-07-13T18:59:50;26.20;46.30
60848;DHT22;46681;47.696;9.140;2023-07-13T19:02:26;26.10;46.30
60848;DHT22;46681;47.696;9.140;2023-07-13T19:05:01;26.10;46.50
60848;DHT22;46681;47.696;9.140;2023-07-13T19:07:36;26.00;46.40
60848;DHT22;46681;47.696;9.140;2023-07-13T19:10:05;26.00;46.60
60848;DHT22;46681;47.696;9.140;2023-07-13T19:12:31;25.90;46.70
60848;DHT22;46681;47.696;9.140;2023-07-13T19:15:17;25.80;46.60
60848;DHT22;46681;47.696;9.140;2023-07-13T19:18:13;25.70;46.70
60848;DHT22;46681;47.696;9.140;2023-07-13T19:21:02;25.60;46.90
60848;DHT22;46681;47.696;9.140;2023-07-13T19:23:44;25.50;47.00
60848;DHT22;46681;47.696;9.140;2023-07-13T19:26:34;25.50;47.20
60848;DHT22;46681;47.696;9.140;2023-07-13T19:29:13;25.40;47.20
60848;DHT22;46681;47.696;9.140;2023-07-13T19:31:39;25.40;47.40
60848;DHT22;46681;47.696;9.140;2023-07-13T19:34:26;25.30;47.50
60848;DHT22;46681;47.696;9.140;2023-07-13T19:37:33;25.20;47.70
60848;DHT22;46681;47.696;9.140;2023-07-13T19:39:55;25.10;47.90
60848;DHT22;46681;47.696;9.140;2023-07-13T19:42:26;25.00;48.30
60848;DHT22;46681;47.696;9.140;2023-07-13T19:44:59;25.00;48.10
60848;DHT22;46681;47.696;9.140;2023-07-13T19:47:25;24.90;48.50
60848;DHT22;46681;47.696;9.140;2023-07-13T19:49:51;24.80;48.30
60848;DHT22;46681;47.696;9.140;2023-07-13T19:52:23;24.80;48.40
60848;DHT22;46681;47.696;9.140;2023-07-13T19:54:51;24.70;48.50
60848;DHT22;46681;47.696;9.140;2023-07-13T19:57:25;24.60;48.60
60848;DHT22;46681;47.696;9.140;2023-07-13T19:59:56;24.60;48.70
60848;DHT22;46681;47.696;9.140;2023-07-13T20:02:23;24.50;48.80
60848;DHT22;46681;47.696;9.140;2023-07-13T20:04:52;24.40;48.80
60848;DHT22;46681;47.696;9.140;2023-07-13T20:07:23;24.40;48.70
60848;DHT22;46681;47.696;9.140;2023-07-13T20:09:51;24.30;48.90
60848;DHT22;46681;47.696;9.140;2023-07-13T20:12:23;24.30;49.00
60848;DHT22;46681;47.696;9.140;2023-07-13T20:14:53;24.20;48.80
60848;DHT22;46681;47.696;9.140;2023-07-13T20:19:55;24.10;49.00
60848;DHT22;46681;47.696;9.140;2023-07-13T20:22:20;24.00;49.10
60848;DHT22;46681;47.696;9.140;2023-07-13T20:24:46;24.00;49.30
60848;DHT22;46681;47.696;9.140;2023-07-13T20:27:16;23.90;49.30
60848;DHT22;46681;47.696;9.140;2023-07-13T20:29:42;23.90;49.40
60848;DHT22;46681;47.696;9.140;2023-07-13T20:32:10;23.80;49.50
60848;DHT22;46681;47.696;9.140;2023-07-13T20:34:39;23.80;49.50
60848;DHT22;46681;47.696;9.140;2023-07-13T20:37:31;23.70;49.70
60848;DHT22;46681;47.696;9.140;2023-07-13T20:39:59;23.70;49.80
60848;DHT22;46681;47.696;9.140;2023-07-13T20:42:30;23.60;49.80
60848;DHT22;46681;47.696;9.140;2023-07-13T20:44:58;23.60;49.80
60848;DHT22;46681;47.696;9.140;2023-07-13T20:47:24;23.50;50.00
60848;DHT22;46681;47.696;9.140;2023-07-13T20:49:50;23.50;50.00
60848;DHT22;46681;47.696;9.140;2023-07-13T20:52:17;23.40;50.10
60848;DHT22;46681;47.696;9.140;2023-07-13T20:54:42;23.30;50.10
60848;DHT22;46681;47.696;9.140;2023-07-13T20:57:08;23.30;50.10
60848;DHT22;46681;47.696;9.140;2023-07-13T20:59:33;23.30;50.30
60848;DHT22;46681;47.696;9.140;2023-07-13T21:02:00;23.30;50.30
60848;DHT22;46681;47.696;9.140;2023-07-13T21:04:26;23.20;50.40
60848;DHT22;46681;47.696;9.140;2023-07-13T21:06:52;23.20;50.30
60848;DHT22;46681;47.696;9.140;2023-07-13T21:09:19;23.10;50.50
60848;DHT22;46681;47.696;9.140;2023-07-13T21:11:47;23.00;50.40
60848;DHT22;46681;47.696;9.140;2023-07-13T21:14:15;23.00;50.50
60848;DHT22;46681;47.696;9.140;2023-07-13T21:16:41;23.00;50.70
60848;DHT22;46681;47.696;9.140;2023-07-13T21:19:11;22.90;50.60
60848;DHT22;46681;47.696;9.140;2023-07-13T21:21:37;22.90;50.90
60848;DHT22;46681;47.696;9.140;2023-07-13T21:24:03;22.80;50.80
60848;DHT22;46681;47.696;9.140;2023-07-13T21:26:30;22.80;50.90
60848;DHT22;46681;47.696;9.140;2023-07-13T21:28:58;22.80;50.70
60848;DHT22;46681;47.696;9.140;2023-07-13T21:31:33;22.70;50.90
60848;DHT22;46681;47.696;9.140;2023-07-13T21:34:22;22.70;51.00
60848;DHT22;46681;47.696;9.140;2023-07-13T21:36:47;22.60;51.00
60848;DHT22;46681;47.696;9.140;2023-07-13T21:39:16;22.60;50.90
60848;DHT22;46681;47.696;9.140;2023-07-13T21:41:43;22.50;51.00
60848;DHT22;46681;47.696;9.140;2023-07-13T21:44:18;22.50;51.10
60848;DHT22;46681;47.696;9.140;2023-07-13T21:46:46;22.40;51.10
60848;DHT22;46681;47.696;9.140;2023-07-13T21:49:12;22.40;51.10
60848;DHT22;46681;47.696;9.140;2023-07-13T21:51:37;22.40;51.20
60848;DHT22;46681;47.696;9.140;2023-07-13T21:54:19;22.30;51.30
60848;DHT22;46681;47.696;9.140;2023-07-13T21:56:45;22.30;51.30
60848;DHT22;46681;47.696;9.140;2023-07-13T21:59:25;22.20;51.30
60848;DHT22;46681;47.696;9.140;2023-07-13T22:01:52;22.20;51.30
60848;DHT22;46681;47.696;9.140;2023-07-13T22:04:21;22.10;51.50
60848;DHT22;46681;47.696;9.140;2023-07-13T22:06:50;22.10;51.40
60848;DHT22;46681;47.696;9.140;2023-07-13T22:09:18;22.10;51.80
60848;DHT22;46681;47.696;9.140;2023-07-13T22:11:44;22.00;51.40
60848;DHT22;46681;47.696;9.140;2023-07-13T22:14:11;22.00;51.40
60848;DHT22;46681;47.696;9.140;2023-07-13T22:16:37;22.00;51.60
60848;DHT22;46681;47.696;9.140;2023-07-13T22:19:11;22.00;51.50
60848;DHT22;46681;47.696;9.140;2023-07-13T22:21:37;21.90;51.60
60848;DHT22;46681;47.696;9.140;2023-07-13T22:24:13;21.90;51.60
60848;DHT22;46681;47.696;9.140;2023-07-13T22:26:40;21.80;51.50
60848;DHT22;46681;47.696;9.140;2023-07-13T22:29:15;21.80;51.70
60848;DHT22;46681;47.696;9.140;2023-07-13T22:31:42;21.80;51.80
60848;DHT22;46681;47.696;9.140;2023-07-13T22:34:13;21.70;51.80
60848;DHT22;46681;47.696;9.140;2023-07-13T22:36:39;21.70;51.90
60848;DHT22;46681;47.696;9.140;2023-07-13T22:39:09;21.70;51.90
60848;DHT22;46681;47.696;9.140;2023-07-13T22:41:36;21.60;52.00
60848;DHT22;46681;47.696;9.140;2023-07-13T22:44:02;21.60;52.10
60848;DHT22;46681;47.696;9.140;2023-07-13T22:46:32;21.60;52.10
60848;DHT22;46681;47.696;9.140;2023-07-13T22:48:59;21.60;52.20
60848;DHT22;46681;47.696;9.140;2023-07-13T22:51:27;21.50;52.10
60848;DHT22;46681;47.696;9.140;2023-07-13T22:53:53;21.50;52.10
60848;DHT22;46681;47.696;9.140;2023-07-13T22:56:18;21.50;52.30
60848;DHT22;46681;47.696;9.140;2023-07-13T22:58:44;21.40;52.10
60848;DHT22;46681;47.696;9.140;2023-07-13T23:01:20;21.40;52.20